sensor_id;sensor_type;location;lat;lon;timestamp;P1;durP1;ratioP1;P2;durP2;ratioP2
7475;SDS011;3779;49.216;8.650;2023-08-21T02:16:37;6.25;;;4.32;;
7475;SDS011;3779;49.216;8.650;2023-08-21T02:19:23;8.52;;;4.60;;
7475;SDS011;3779;49.216;8.650;2023-08-21T02:22:09;5.88;;;3.90;;
7475;SDS011;3779;49.216;8.650;2023-08-21T02:24:55;5.18;;;4.68;;
7475;SDS011;3779;49.216;8.650;2023-08-21T02:27:41;6.07;;;4.80;;
7475;SDS011;3779;49.216;8.650;2023-08-21T02:30:27;5.10;;;4.65;;
7475;SDS011;3779;49.216;8.650;2023-08-21T02:33:14;6.60;;;4.40;;
7475;SDS011;3779;49.216;8.650;2023-08-21T02:35:59;6.75;;;4.38;;
7475;SDS011;3779;49.216;8.650;2023-08-21T02:38:49;7.75;;;4.78;;
7475;SDS011;3779;49.216;8.650;2023-08-21T02:41:35;5.38;;;4.85;;
7475;SDS011;3779;49.216;8.650;2023-08-21T02:44:21;5.93;;;4.68;;
7475;SDS011;3779;49.216;8.650;2023-08-21T02:47:07;6.93;;;5.10;;
7475;SDS011;3779;49.216;8.650;2023-08-21T02:49:52;7.65;;;4.07;;
7475;SDS011;3779;49.216;8.650;2023-08-21T02:52:38;4.63;;;4.10;;
7475;SDS011;3779;49.216;8.650;2023-08-21T02:55:24;5.82;;;4.57;;
7475;SDS011;3779;49.216;8.650;2023-08-21T02:58:10;7.95;;;4.85;;
7475;SDS011;3779;49.216;8.650;2023-08-21T03:00:58;7.75;;;4.32;;
7475;SDS011;3779;49.216;8.650;2023-08-21T03:03:44;10.25;;;4.53;;
7475;SDS011;3779;49.216;8.650;2023-08-21T03:06:29;4.65;;;4.25;;
7475;SDS011;3779;49.216;8.650;2023-08-21T03:09:15;5.35;;;4.50;;
7475;SDS011;3779;49.216;8.650;2023-08-21T03:12:01;5.30;;;4.75;;
7475;SDS011;3779;49.216;8.650;2023-08-21T03:14:47;5.43;;;4.50;;
7475;SDS011;3779;49.216;8.650;2023-08-21T03:17:34;7.22;;;4.82;;
7475;SDS011;3779;49.216;8.650;2023-08-21T03:28:49;6.78;;;4.25;;
7475;SDS011;3779;49.216;8.650;2023-08-21T03:31:35;4.97;;;4.22;;
7475;SDS011;3779;49.216;8.650;2023-08-21T03:34:21;4.88;;;4.38;;
7475;SDS011;3779;49.216;8.650;2023-08-21T03:37:10;4.22;;;3.83;;
7475;SDS011;3779;49.216;8.650;2023-08-21T03:39:56;5.53;;;4.05;;
7475;SDS011;3779;49.216;8.650;2023-08-21T03:42:42;6.32;;;3.80;;
7475;SDS011;3779;49.216;8.650;2023-08-21T03:45:28;8.13;;;4.20;;
7475;SDS011;3779;49.216;8.650;2023-08-21T03:48:14;7.22;;;4.88;;
7475;SDS011;3779;49.216;8.650;2023-08-21T03:51:00;5.30;;;4.05;;
7475;SDS011;3779;49.216;8.650;2023-08-21T03:53:46;4.70;;;3.80;;
7475;SDS011;3779;49.216;8.650;2023-08-21T03:56:32;5.82;;;3.72;;
7475;SDS011;3779;49.216;8.650;2023-08-21T03:59:17;6.45;;;4.05;;
7475;SDS011;3779;49.216;8.650;2023-08-21T04:02:03;4.97;;;4.20;;
7475;SDS011;3779;49.216;8.650;2023-08-21T04:04:49;4.03;;;3.72;;
7475;SDS011;3779;49.216;8.650;2023-08-21T04:07:35;5.88;;;4.28;;
7475;SDS011;3779;49.216;8.650;2023-08-21T04:10:21;4.45;;;3.88;;
7475;SDS011;3779;49.216;8.650;2023-08-21T04:13:07;5.82;;;3.97;;
7475;SDS011;3779;49.216;8.650;2023-08-21T04:15:54;11.45;;;3.88;;
7475;SDS011;3779;49.216;8.650;2023-08-21T04:18:41;7.18;;;4.18;;
7475;SDS011;3779;49.216;8.650;2023-08-21T04:21:27;6.20;;;3.95;;
7475;SDS011;3779;49.216;8.650;2023-08-21T04:24:13;4.78;;;4.00;;
7475;SDS011;3779;49.216;8.650;2023-08-21T04:26:59;4.20;;;3.90;;
7475;SDS011;3779;49.216;8.650;2023-08-21T04:29:45;5.50;;;4.07;;
7475;SDS011;3779;49.216;8.650;2023-08-21T04:32:31;5.65;;;4.55;;
7475;SDS011;3779;49.216;8.650;2023-08-21T04:35:17;5.55;;;4.28;;
7475;SDS011;3779;49.216;8.650;2023-08-21T04:38:03;6.70;;;4.57;;
7475;SDS011;3779;49.216;8.650;2023-08-21T04:40:49;7.50;;;4.60;;
7475;SDS011;3779;49.216;8.650;2023-08-21T04:43:35;5.20;;;4.70;;
7475;SDS011;3779;49.216;8.650;2023-08-21T04:46:23;5.53;;;4.30;;
7475;SDS011;3779;49.216;8.650;2023-08-21T04:49:09;4.72;;;3.90;;
7475;SDS011;3779;49.216;8.650;2023-08-21T04:51:55;5.40;;;4.20;;
7475;SDS011;3779;49.216;8.650;2023-08-21T04:54:40;6.13;;;3.83;;
7475;SDS011;3779;49.216;8.650;2023-08-21T04:57:26;6.72;;;4.10;;
7475;SDS011;3779;49.216;8.650;2023-08-21T05:00:12;5.57;;;3.88;;
7475;SDS011;3779;49.216;8.650;2023-08-21T05:03:01;4.85;;;3.70;;
7475;SDS011;3779;49.216;8.650;2023-08-21T05:05:52;4.45;;;4.07;;
7475;SDS011;3779;49.216;8.650;2023-08-21T05:08:41;6.18;;;4.18;;
7475;SDS011;3779;49.216;8.650;2023-08-21T05:11:28;4.10;;;3.63;;
7475;SDS011;3779;49.216;8.650;2023-08-21T05:14:14;6.40;;;4.15;;
7475;SDS011;3779;49.216;8.650;2023-08-21T05:17:00;5.03;;;4.57;;
7475;SDS011;3779;49.216;8.650;2023-08-21T05:19:46;5.75;;;4.03;;
7475;SDS011;3779;49.216;8.650;2023-08-21T05:22:32;4.85;;;4.10;;
7475;SDS011;3779;49.216;8.650;2023-08-21T05:25:18;6.05;;;4.68;;
7475;SDS011;3779;49.216;8.650;2023-08-21T05:28:03;5.47;;;5.00;;
7475;SDS011;3779;49.216;8.650;2023-08-21T05:30:50;5.55;;;4.50;;
7475;SDS011;3779;49.216;8.650;2023-08-21T05:33:37;5.63;;;5.00;;
7475;SDS011;3779;49.216;8.650;2023-08-21T05:36:24;7.40;;;5.88;;
7475;SDS011;3779;49.216;8.650;2023-08-21T05:39:10;8.75;;;4.80;;
7475;SDS011;3779;49.216;8.650;2023-08-21T05:41:56;6.07;;;4.90;;
7475;SDS011;3779;49.216;8.650;2023-08-21T05:44:43;6.90;;;5.20;;
7475;SDS011;3779;49.216;8.650;2023-08-21T05:47:30;6.60;;;4.57;;
7475;SDS011;3779;49.216;8.650;2023-08-21T05:50:16;7.30;;;5.50;;
7475;SDS011;3779;49.216;8.650;2023-08-21T05:53:05;7.72;;;5.63;;
7475;SDS011;3779;49.216;8.650;2023-08-21T05:55:52;6.20;;;5.60;;
7475;SDS011;3779;49.216;8.650;2023-08-21T10:35:34;0.75;;;0.68;;
7475;SDS011;3779;49.216;8.650;2023-08-21T11:29:16;1.58;;;1.48;;
7475;SDS011;3779;49.216;8.650;2023-08-21T14:20:03;0.60;;;0.60;;
7475;SDS011;3779;49.216;8.650;2023-08-21T14:22:49;2.13;;;1.92;;
7475;SDS011;3779;49.216;8.650;2023-08-21T14:25:35;2.22;;;1.73;;
7475;SDS011;3779;49.216;8.650;2023-08-21T14:28:22;2.47;;;2.28;;
7475;SDS011;3779;49.216;8.650;2023-08-21T14:31:17;2.35;;;1.83;;
7475;SDS011;3779;49.216;8.650;2023-08-21T14:34:06;1.80;;;1.70;;
7475;SDS011;3779;49.216;8.650;2023-08-21T14:37:00;2.13;;;2.03;;
7475;SDS011;3779;49.216;8.650;2023-08-21T14:39:46;3.38;;;1.80;;
7475;SDS011;3779;49.216;8.650;2023-08-21T14:42:36;3.92;;;2.45;;
7475;SDS011;3779;49.216;8.650;2023-08-21T14:45:22;1.63;;;1.52;;
7475;SDS011;3779;49.216;8.650;2023-08-21T14:48:09;0.65;;;0.65;;
7475;SDS011;3779;49.216;8.650;2023-08-21T14:50:55;0.73;;;0.73;;
7475;SDS011;3779;49.216;8.650;2023-08-21T14:53:41;0.70;;;0.70;;
7475;SDS011;3779;49.216;8.650;2023-08-21T14:56:27;1.60;;;1.50;;
7475;SDS011;3779;49.216;8.650;2023-08-21T14:59:13;2.75;;;2.45;;
7475;SDS011;3779;49.216;8.650;2023-08-21T15:01:59;1.80;;;1.63;;
7475;SDS011;3779;49.216;8.650;2023-08-21T15:04:45;0.68;;;0.68;;
7475;SDS011;3779;49.216;8.650;2023-08-21T15:07:31;0.80;;;0.80;;
7475;SDS011;3779;49.216;8.650;2023-08-21T15:13:29;2.40;;;2.20;;
7475;SDS011;3779;49.216;8.650;2023-08-21T17:46:23;4.18;;;3.78;;
7475;SDS011;3779;49.216;8.650;2023-08-21T17:56:42;3.30;;;2.95;;
7475;SDS011;3779;49.216;8.650;2023-08-21T18:00:10;5.32;;;2.85;;
7475;SDS011;3779;49.216;8.650;2023-08-21T18:53:42;8.40;;;4.88;;
7475;SDS011;3779;49.216;8.650;2023-08-21T19:04:53;4.78;;;4.10;;
7475;SDS011;3779;49.216;8.650;2023-08-21T19:07:39;4.97;;;3.40;;
7475;SDS011;3779;49.216;8.650;2023-08-21T19:10:26;5.85;;;4.45;;
7475;SDS011;3779;49.216;8.650;2023-08-21T19:13:12;6.50;;;4.70;;
7475;SDS011;3779;49.216;8.650;2023-08-21T19:15:57;8.65;;;3.53;;
7475;SDS011;3779;49.216;8.650;2023-08-21T19:18:44;5.18;;;3.83;;
7475;SDS011;3779;49.216;8.650;2023-08-21T19:21:30;4.35;;;3.85;;
7475;SDS011;3779;49.216;8.650;2023-08-21T19:24:16;3.83;;;3.42;;
7475;SDS011;3779;49.216;8.650;2023-08-21T19:27:02;3.25;;;3.00;;
7475;SDS011;3779;49.216;8.650;2023-08-21T19:29:48;5.47;;;3.58;;
7475;SDS011;3779;49.216;8.650;2023-08-21T19:32:34;3.88;;;3.42;;
7475;SDS011;3779;49.216;8.650;2023-08-21T19:35:21;4.43;;;3.45;;
7475;SDS011;3779;49.216;8.650;2023-08-21T19:38:07;3.63;;;3.22;;
7475;SDS011;3779;49.216;8.650;2023-08-21T19:40:55;3.40;;;3.10;;
7475;SDS011;3779;49.216;8.650;2023-08-21T19:43:42;5.93;;;4.53;;
7475;SDS011;3779;49.216;8.650;2023-08-21T19:46:28;6.95;;;4.25;;
7475;SDS011;3779;49.216;8.650;2023-08-21T19:49:14;5.03;;;3.70;;
7475;SDS011;3779;49.216;8.650;2023-08-21T19:52:00;3.50;;;3.20;;
7475;SDS011;3779;49.216;8.650;2023-08-21T19:54:46;4.10;;;3.10;;
7475;SDS011;3779;49.216;8.650;2023-08-21T19:57:33;3.50;;;3.20;;
7475;SDS011;3779;49.216;8.650;2023-08-21T21:16:00;4.65;;;3.08;;
7475;SDS011;3779;49.216;8.650;2023-08-21T21:21:42;3.80;;;3.00;;
7475;SDS011;3779;49.216;8.650;2023-08-21T21:24:27;3.22;;;2.83;;
7475;SDS011;3779;49.216;8.650;2023-08-21T21:33:13;3.15;;;2.85;;
7475;SDS011;3779;49.216;8.650;2023-08-21T22:23:19;3.08;;;2.80;;
7475;SDS011;3779;49.216;8.650;2023-08-21T22:26:05;3.00;;;2.55;;
7475;SDS011;3779;49.216;8.650;2023-08-21T22:28:50;3.47;;;2.90;;
7475;SDS011;3779;49.216;8.650;2023-08-21T22:31:36;3.60;;;2.67;;
7475;SDS011;3779;49.216;8.650;2023-08-21T22:34:22;3.38;;;3.08;;
7475;SDS011;3779;49.216;8.650;2023-08-21T22:37:08;3.65;;;3.03;;
7475;SDS011;3779;49.216;8.650;2023-08-21T22:39:54;3.13;;;2.92;;
7475;SDS011;3779;49.216;8.650;2023-08-21T22:42:40;3.35;;;3.05;;
7475;SDS011;3779;49.216;8.650;2023-08-21T22:45:26;9.23;;;4.95;;
7475;SDS011;3779;49.216;8.650;2023-08-21T22:48:12;3.35;;;3.05;;
7475;SDS011;3779;49.216;8.650;2023-08-21T22:50:57;3.72;;;3.33;;
7475;SDS011;3779;49.216;8.650;2023-08-21T22:53:48;3.40;;;3.10;;
7475;SDS011;3779;49.216;8.650;2023-08-21T22:56:39;3.58;;;3.28;;
7475;SDS011;3779;49.216;8.650;2023-08-21T22:59:25;4.25;;;3.00;;
7475;SDS011;3779;49.216;8.650;2023-08-21T23:02:11;3.08;;;2.78;;
7475;SDS011;3779;49.216;8.650;2023-08-21T23:08:09;8.00;;;5.53;;
7475;SDS011;3779;49.216;8.650;2023-08-21T23:10:55;5.45;;;4.80;;
7475;SDS011;3779;49.216;8.650;2023-08-21T23:13:41;8.10;;;5.20;;
7475;SDS011;3779;49.216;8.650;2023-08-21T23:16:27;8.98;;;5.20;;
7475;SDS011;3779;49.216;8.650;2023-08-21T23:19:23;5.88;;;5.20;;
7475;SDS011;3779;49.216;8.650;2023-08-21T23:22:09;6.18;;;5.13;;
7475;SDS011;3779;49.216;8.650;2023-08-21T23:24:55;5.82;;;5.20;;
7475;SDS011;3779;49.216;8.650;2023-08-21T23:30:52;5.60;;;4.85;;
7475;SDS011;3779;49.216;8.650;2023-08-21T23:33:39;6.90;;;5.13;;
7475;SDS011;3779;49.216;8.650;2023-08-21T23:36:26;7.10;;;5.20;;
7475;SDS011;3779;49.216;8.650;2023-08-21T23:39:12;5.75;;;5.13;;
7475;SDS011;3779;49.216;8.650;2023-08-21T23:41:58;5.57;;;4.72;;
7475;SDS011;3779;49.216;8.650;2023-08-21T23:44:44;5.57;;;4.80;;
7475;SDS011;3779;49.216;8.650;2023-08-21T23:47:31;6.70;;;4.78;;
7475;SDS011;3779;49.216;8.650;2023-08-21T23:50:17;5.55;;;4.18;;
7475;SDS011;3779;49.216;8.650;2023-08-21T23:53:03;5.22;;;4.40;;
7475;SDS011;3779;49.216;8.650;2023-08-21T23:55:52;5.82;;;4.10;;
7475;SDS011;3779;49.216;8.650;2023-08-21T23:58:39;4.50;;;4.03;;
